Time;durP1;ratioP1;P1;durP2;ratioP2;P2;SDS_P1;SDS_P2;PMS_P1;PMS_P2;Temp;Humidity;BMP_temperature;BMP_pressure;BME280_temperature;BME280_humidity;BME280_pressure;Samples;Min_cycle;Max_cycle;Signal;HPM_P1;HPM_P2
2023/12/15 00:00:24;;;;;;;;;;;6.50;99.90;;;;;;5107989;27;20398;-75
2023/12/15 00:02:50;;;;;;;;;;;6.50;99.90;;;;;;5116172;27;19931;-76
2023/12/15 00:05:15;;;;;;;;;;;6.50;99.90;;;;;;5112768;27;19934;-75
2023/12/15 00:07:41;;;;;;;;;;;6.40;99.90;;;;;;5106813;27;19931;-76
2023/12/15 00:10:07;;;;;;;;;;;6.40;99.90;;;;;;5111186;27;20228;-76
2023/12/15 00:12:33;;;;;;;;;;;6.40;99.90;;;;;;5097016;27;19962;-76
2023/12/15 00:14:59;;;;;;;;;;;6.40;99.90;;;;;;5105849;27;20002;-76
2023/12/15 00:17:24;;;;;;;;;;;6.40;99.90;;;;;;5096480;27;19935;-77
2023/12/15 00:19:50;;;;;;;;;;;6.30;99.90;;;;;;5105375;27;20021;-76
2023/12/15 00:22:18;;;;;;;;;;;6.30;99.90;;;;;;5112921;27;19928;-75
2023/12/15 00:24:43;;;;;;;;;;;6.30;99.90;;;;;;5114045;27;19974;-75
2023/12/15 00:27:09;;;;;;;;;;;6.20;99.90;;;;;;5110137;27;20014;-76
2023/12/15 00:29:34;;;;;;;;;;;6.20;99.90;;;;;;5097456;27;19919;-76
2023/12/15 00:32:00;;;;;;;;;;;6.20;99.90;;;;;;5095241;27;20039;-76
2023/12/15 00:34:26;;;;;;;;;;;6.10;99.90;;;;;;5113477;27;20043;-76
2023/12/15 00:36:51;;;;;;;;;;;6.10;99.90;;;;;;5113320;27;19934;-76
2023/12/15 00:39:17;;;;;;;;;;;6.10;99.90;;;;;;5089995;27;19970;-76
2023/12/15 00:41:43;;;;;;;;;;;6.10;99.90;;;;;;5085086;27;19958;-76
2023/12/15 00:44:08;;;;;;;;;;;6.00;99.90;;;;;;5113795;27;20478;-76
2023/12/15 00:46:34;;;;;;;;;;;6.00;99.90;;;;;;5111138;27;19934;-76
2023/12/15 00:48:59;;;;;;;;;;;6.00;99.90;;;;;;5110236;27;20444;-76
2023/12/15 00:51:25;;;;;;;;;;;6.00;99.90;;;;;;5106700;27;20247;-76
2023/12/15 00:53:51;;;;;;;;;;;6.00;99.90;;;;;;5094757;27;19934;-76
2023/12/15 00:56:16;;;;;;;;;;;6.00;99.90;;;;;;5093846;27;19927;-76
2023/12/15 00:58:42;;;;;;;;;;;6.00;99.90;;;;;;5085192;27;20358;-76
2023/12/15 01:01:07;;;;;;;;;;;6.20;99.90;;;;;;5084806;27;20277;-76
2023/12/15 01:03:33;;;;;;;;;;;6.10;99.90;;;;;;5099148;27;19988;-76
2023/12/15 01:05:59;;;;;;;;;;;6.20;99.90;;;;;;5089902;27;19944;-76
2023/12/15 01:08:24;;;;;;;;;;;6.20;99.90;;;;;;5107077;27;19924;-76
2023/12/15 01:10:50;;;;;;;;;;;6.50;99.90;;;;;;5095780;27;20367;-76
2023/12/15 01:13:16;;;;;;;;;;;6.20;99.90;;;;;;5103885;27;19988;-76
2023/12/15 01:15:41;;;;;;;;;;;6.20;99.90;;;;;;5126686;27;20374;-76
2023/12/15 01:18:07;;;;;;;;;;;6.30;99.90;;;;;;5107204;27;20384;-76
2023/12/15 01:20:33;;;;;;;;;;;6.30;99.90;;;;;;5112786;27;19970;-77
2023/12/15 01:22:58;;;;;;;;;;;6.30;99.90;;;;;;5094348;27;19927;-76
2023/12/15 01:25:27;;;;;;;;;;;6.20;99.90;;;;;;5127943;27;19932;-75
2023/12/15 01:27:52;;;;;;;;;;;6.20;99.90;;;;;;5105745;27;19928;-76
2023/12/15 01:30:18;;;;;;;;;;;6.20;99.90;;;;;;5113947;27;20392;-76
2023/12/15 01:32:44;;;;;;;;;;;6.20;99.90;;;;;;5108813;27;21118;-75
2023/12/15 01:35:10;;;;;;;;;;;6.20;99.90;;;;;;5111142;27;19927;-75
2023/12/15 01:37:35;;;;;;;;;;;6.20;99.90;;;;;;5111733;27;19927;-76
2023/12/15 01:40:01;;;;;;;;;;;6.20;99.90;;;;;;5082723;27;20329;-75
2023/12/15 01:42:26;;;;;;;;;;;6.20;99.90;;;;;;5105303;27;20838;-76
2023/12/15 01:44:53;;;;;;;;;;;6.20;99.90;;;;;;5094527;27;19923;-76
2023/12/15 01:47:18;;;;;;;;;;;6.10;99.90;;;;;;5095333;27;19931;-76
2023/12/15 01:49:46;;;;;;;;;;;6.10;99.90;;;;;;5107947;27;19977;-76
2023/12/15 01:52:11;;;;;;;;;;;6.10;99.90;;;;;;5111433;27;20017;-76
2023/12/15 01:54:37;;;;;;;;;;;6.10;99.90;;;;;;5132865;27;20014;-76
2023/12/15 01:57:03;;;;;;;;;;;6.10;99.90;;;;;;5114314;27;19923;-76
2023/12/15 01:59:40;;;;;;;;;;;6.10;99.90;;;;;;5106642;27;19927;-76
2023/12/15 02:02:05;;;;;;;;;;;6.10;99.90;;;;;;5116840;27;20046;-76
2023/12/15 02:04:31;;;;;;;;;;;6.10;99.90;;;;;;5104707;27;20320;-75
2023/12/15 02:06:57;;;;;;;;;;;6.10;99.90;;;;;;5093638;27;19975;-75
2023/12/15 02:09:22;;;;;;;;;;;6.00;99.90;;;;;;5096474;27;20352;-76
2023/12/15 02:11:48;;;;;;;;;;;6.00;99.90;;;;;;5101543;27;19928;-76
2023/12/15 02:14:13;;;;;;;;;;;6.00;99.90;;;;;;5116823;27;19931;-76
2023/12/15 02:16:39;;;;;;;;;;;6.00;99.90;;;;;;5113384;27;19931;-76
2023/12/15 02:19:04;;;;;;;;;;;6.00;99.90;;;;;;5115651;27;19949;-76
2023/12/15 02:21:32;;;;;;;;;;;5.90;99.90;;;;;;5110002;27;19992;-76
2023/12/15 02:23:57;;;;;;;;;;;5.90;99.90;;;;;;5109345;27;19931;-76
2023/12/15 02:26:23;;;;;;;;;;;5.90;99.90;;;;;;5114299;27;19927;-76
2023/12/15 02:28:49;;;;;;;;;;;5.90;99.90;;;;;;5110236;27;19962;-76
2023/12/15 02:31:14;;;;;;;;;;;5.90;99.90;;;;;;5119473;27;20003;-76
2023/12/15 02:33:40;;;;;;;;;;;6.00;99.90;;;;;;5092809;27;20288;-76
2023/12/15 02:36:06;;;;;;;;;;;6.00;99.90;;;;;;5106986;27;19938;-75
2023/12/15 02:38:31;;;;;;;;;;;6.10;99.90;;;;;;5099941;27;19928;-76
2023/12/15 02:40:57;;;;;;;;;;;6.10;99.90;;;;;;5097527;27;19931;-76
2023/12/15 02:43:23;;;;;;;;;;;6.20;99.90;;;;;;5096514;27;20474;-76
2023/12/15 02:45:48;;;;;;;;;;;6.20;99.90;;;;;;5094999;27;20005;-76
2023/12/15 02:48:16;;;;;;;;;;;6.30;99.90;;;;;;5112312;27;19962;-76
2023/12/15 02:50:42;;;;;;;;;;;6.30;99.90;;;;;;5112837;27;19927;-75
2023/12/15 02:53:08;;;;;;;;;;;6.30;99.90;;;;;;5101282;27;19946;-77
2023/12/15 02:55:33;;;;;;;;;;;6.30;99.90;;;;;;5116384;27;19977;-76
2023/12/15 02:57:59;;;;;;;;;;;6.20;99.90;;;;;;5105658;27;19946;-77
2023/12/15 03:00:24;;;;;;;;;;;6.30;99.90;;;;;;5097841;27;20318;-76
2023/12/15 03:02:50;;;;;;;;;;;6.20;99.90;;;;;;5105772;27;20415;-76
2023/12/15 03:05:16;;;;;;;;;;;6.20;99.90;;;;;;5097209;27;19927;-75
2023/12/15 03:07:41;;;;;;;;;;;6.20;99.90;;;;;;5113685;27;20007;-76
2023/12/15 03:10:07;;;;;;;;;;;6.10;99.90;;;;;;5113598;27;19927;-76
2023/12/15 03:12:33;;;;;;;;;;;6.10;99.90;;;;;;5112276;27;19923;-75
2023/12/15 03:14:58;;;;;;;;;;;6.10;99.90;;;;;;5110217;27;19923;-76
2023/12/15 03:17:24;;;;;;;;;;;6.10;99.90;;;;;;5115466;27;19991;-76
2023/12/15 03:19:50;;;;;;;;;;;6.10;99.90;;;;;;5110443;27;19932;-76
2023/12/15 03:22:16;;;;;;;;;;;6.10;99.90;;;;;;5094863;27;20115;-75
2023/12/15 03:24:41;;;;;;;;;;;6.00;99.90;;;;;;5107247;27;20120;-75
2023/12/15 03:27:07;;;;;;;;;;;6.00;99.90;;;;;;5115347;27;19934;-75
2023/12/15 03:29:34;;;;;;;;;;;6.00;99.90;;;;;;5108361;27;23450;-78
2023/12/15 03:32:00;;;;;;;;;;;6.00;99.90;;;;;;5112959;27;19931;-75
2023/12/15 03:34:26;;;;;;;;;;;6.00;99.90;;;;;;5090127;27;19931;-75
2023/12/15 03:36:51;;;;;;;;;;;6.00;99.90;;;;;;5106835;27;19934;-76
2023/12/15 03:39:17;;;;;;;;;;;6.00;99.90;;;;;;5113741;27;20110;-75
2023/12/15 03:41:43;;;;;;;;;;;5.90;99.90;;;;;;5107151;27;19980;-76
2023/12/15 03:44:08;;;;;;;;;;;5.90;99.90;;;;;;5108542;27;19933;-75
2023/12/15 03:46:34;;;;;;;;;;;6.00;99.90;;;;;;5107777;27;20373;-76
2023/12/15 03:48:59;;;;;;;;;;;6.00;99.90;;;;;;5094678;27;19934;-75
2023/12/15 03:51:25;;;;;;;;;;;6.10;99.90;;;;;;5109837;27;20284;-75
2023/12/15 03:53:50;;;;;;;;;;;6.10;99.90;;;;;;5118674;27;19980;-76
2023/12/15 03:56:23;;;;;;;;;;;6.10;99.90;;;;;;5093909;27;19927;-76
2023/12/15 03:58:48;;;;;;;;;;;6.20;99.90;;;;;;5081516;27;19927;-75
2023/12/15 04:01:14;;;;;;;;;;;6.20;99.90;;;;;;5113019;27;19943;-75
2023/12/15 04:03:39;;;;;;;;;;;6.20;99.90;;;;;;5134503;27;19924;-75
2023/12/15 04:06:08;;;;;;;;;;;6.20;99.90;;;;;;5120138;27;20008;-76
2023/12/15 04:08:34;;;;;;;;;;;6.20;99.90;;;;;;5111457;27;19988;-76
2023/12/15 04:10:59;;;;;;;;;;;6.20;99.90;;;;;;5117564;27;19977;-75
2023/12/15 04:13:25;;;;;;;;;;;6.20;99.90;;;;;;5109428;27;20729;-75
2023/12/15 04:15:51;;;;;;;;;;;6.20;99.90;;;;;;5118271;27;19979;-76
2023/12/15 04:18:16;;;;;;;;;;;6.20;99.90;;;;;;5100653;27;19927;-76
2023/12/15 04:20:42;;;;;;;;;;;6.20;99.90;;;;;;5109039;27;19928;-76
2023/12/15 04:23:08;;;;;;;;;;;6.20;99.90;;;;;;5110372;27;19924;-76
2023/12/15 04:25:33;;;;;;;;;;;6.10;99.90;;;;;;5096289;27;19935;-76
2023/12/15 04:27:59;;;;;;;;;;;6.10;99.90;;;;;;5099974;27;19986;-76
2023/12/15 04:30:25;;;;;;;;;;;6.10;99.90;;;;;;5093394;27;20288;-76
2023/12/15 04:32:50;;;;;;;;;;;6.10;99.90;;;;;;5081905;27;19923;-76
2023/12/15 04:35:16;;;;;;;;;;;6.10;99.90;;;;;;5094677;27;20365;-76
2023/12/15 04:37:43;;;;;;;;;;;6.00;99.90;;;;;;5094258;27;20010;-76
2023/12/15 04:40:09;;;;;;;;;;;6.00;99.90;;;;;;5105450;27;20034;-76
2023/12/15 04:42:34;;;;;;;;;;;6.00;99.90;;;;;;5095829;27;19979;-76
2023/12/15 04:45:00;;;;;;;;;;;6.00;99.90;;;;;;5099486;27;20329;-75
2023/12/15 04:47:26;;;;;;;;;;;6.00;99.90;;;;;;5113008;27;20022;-75
2023/12/15 04:49:51;;;;;;;;;;;6.00;99.90;;;;;;5093731;27;20409;-76
2023/12/15 04:52:18;;;;;;;;;;;6.30;99.90;;;;;;5111881;27;19971;-76
2023/12/15 04:54:43;;;;;;;;;;;6.00;99.90;;;;;;5125775;27;20464;-75
2023/12/15 04:57:09;;;;;;;;;;;6.00;99.90;;;;;;5094100;27;19927;-75
2023/12/15 04:59:39;;;;;;;;;;;6.00;99.90;;;;;;5096070;27;19927;-75
2023/12/15 05:02:05;;;;;;;;;;;6.00;99.90;;;;;;5083471;27;20633;-75
2023/12/15 05:04:31;;;;;;;;;;;6.30;99.90;;;;;;5097903;27;19930;-75
2023/12/15 05:06:57;;;;;;;;;;;6.10;99.90;;;;;;5105951;27;20002;-75
2023/12/15 05:09:22;;;;;;;;;;;6.10;99.90;;;;;;5113089;27;20819;-75
2023/12/15 05:11:48;;;;;;;;;;;6.10;99.90;;;;;;5105200;27;19931;-75
2023/12/15 05:14:13;;;;;;;;;;;6.10;99.90;;;;;;5106263;27;19989;-77
2023/12/15 05:16:39;;;;;;;;;;;6.10;99.90;;;;;;5113358;27;19953;-76
2023/12/15 05:19:05;;;;;;;;;;;6.10;99.90;;;;;;5089618;27;19927;-75
2023/12/15 05:21:30;;;;;;;;;;;6.10;99.90;;;;;;5096475;27;19927;-74
2023/12/15 05:23:58;;;;;;;;;;;6.10;99.90;;;;;;5109039;27;20067;-76
2023/12/15 05:26:25;;;;;;;;;;;6.10;99.90;;;;;;5103500;27;19927;-76
2023/12/15 05:28:51;;;;;;;;;;;6.10;99.90;;;;;;5097431;27;19934;-76
2023/12/15 05:31:17;;;;;;;;;;;6.10;99.90;;;;;;5100580;27;19924;-75
2023/12/15 05:33:43;;;;;;;;;;;6.10;99.90;;;;;;5113797;27;19966;-76
2023/12/15 05:36:16;;;;;;;;;;;6.00;99.90;;;;;;5116602;27;19964;-76
2023/12/15 05:38:41;;;;;;;;;;;6.00;99.90;;;;;;5115690;27;20368;-75
2023/12/15 05:41:07;;;;;;;;;;;6.00;99.90;;;;;;5130040;27;19923;-75
2023/12/15 05:43:33;;;;;;;;;;;5.90;99.90;;;;;;5113863;27;19962;-76
2023/12/15 05:45:58;;;;;;;;;;;6.00;99.90;;;;;;5104529;27;19923;-75
2023/12/15 05:48:24;;;;;;;;;;;6.00;99.90;;;;;;5104736;27;19920;-76
2023/12/15 05:50:50;;;;;;;;;;;6.00;99.90;;;;;;5123081;27;20389;-76
2023/12/15 05:53:15;;;;;;;;;;;6.00;99.90;;;;;;5122130;27;19935;-75
2023/12/15 05:55:41;;;;;;;;;;;6.00;99.90;;;;;;5102821;27;20107;-75
2023/12/15 05:58:06;;;;;;;;;;;6.00;99.90;;;;;;5121332;27;20003;-75
2023/12/15 06:00:32;;;;;;;;;;;6.00;99.90;;;;;;5118116;27;20358;-76
2023/12/15 06:02:58;;;;;;;;;;;6.00;99.90;;;;;;5118109;27;19970;-76
2023/12/15 06:05:23;;;;;;;;;;;6.00;99.90;;;;;;5136204;27;19923;-76
2023/12/15 06:07:49;;;;;;;;;;;6.00;99.90;;;;;;5120521;27;19927;-76
2023/12/15 06:10:14;;;;;;;;;;;6.10;99.90;;;;;;5112384;27;20282;-76
2023/12/15 06:12:40;;;;;;;;;;;6.00;99.90;;;;;;5119731;27;20020;-76
2023/12/15 06:15:08;;;;;;;;;;;6.10;99.90;;;;;;5097428;27;20456;-76
2023/12/15 06:17:34;;;;;;;;;;;6.10;99.90;;;;;;5104675;27;19927;-76
2023/12/15 06:19:59;;;;;;;;;;;6.10;99.90;;;;;;5115195;27;19980;-76
2023/12/15 06:22:25;;;;;;;;;;;6.10;99.90;;;;;;5105789;27;20475;-76
2023/12/15 06:24:56;;;;;;;;;;;6.10;99.90;;;;;;5096358;27;19955;-76
2023/12/15 06:27:22;;;;;;;;;;;6.10;99.90;;;;;;5110448;27;20486;-76
2023/12/15 06:29:47;;;;;;;;;;;6.10;99.90;;;;;;5112577;27;19974;-76
2023/12/15 06:32:15;;;;;;;;;;;6.10;99.90;;;;;;5091130;27;20277;-76
2023/12/15 06:34:42;;;;;;;;;;;6.10;99.90;;;;;;5089661;27;20201;-77
2023/12/15 06:37:08;;;;;;;;;;;6.10;99.90;;;;;;5115052;27;19994;-76
2023/12/15 06:39:33;;;;;;;;;;;6.10;99.90;;;;;;5100748;27;19962;-77
2023/12/15 06:42:02;;;;;;;;;;;6.10;99.90;;;;;;5113449;27;20085;-76
2023/12/15 06:44:28;;;;;;;;;;;7.30;99.90;;;;;;5106736;27;19956;-76
2023/12/15 06:46:53;;;;;;;;;;;6.10;99.90;;;;;;5086838;27;19927;-75
2023/12/15 06:49:19;;;;;;;;;;;6.10;99.90;;;;;;5111450;27;19968;-75
2023/12/15 06:51:46;;;;;;;;;;;6.20;99.90;;;;;;5105332;27;19931;-76
2023/12/15 06:54:12;;;;;;;;;;;6.20;99.90;;;;;;5107742;27;19923;-75
2023/12/15 06:56:43;;;;;;;;;;;6.50;99.90;;;;;;5094665;27;20029;-76
2023/12/15 06:59:08;;;;;;;;;;;6.20;99.90;;;;;;5109769;27;20014;-76
2023/12/15 07:01:34;;;;;;;;;;;6.20;99.90;;;;;;5127911;27;19923;-76
2023/12/15 07:04:00;;;;;;;;;;;6.20;99.90;;;;;;5096380;27;20523;-76
2023/12/15 07:06:26;;;;;;;;;;;6.30;99.90;;;;;;5105500;27;20679;-75
2023/12/15 07:08:54;;;;;;;;;;;6.30;99.90;;;;;;5083937;27;19937;-76
2023/12/15 07:11:20;;;;;;;;;;;6.30;99.90;;;;;;5101027;27;19970;-76
2023/12/15 07:13:46;;;;;;;;;;;6.20;99.90;;;;;;5112344;27;20797;-76
2023/12/15 07:16:12;;;;;;;;;;;6.20;99.90;;;;;;5096670;27;19976;-75
2023/12/15 07:18:37;;;;;;;;;;;6.30;99.90;;;;;;5099375;27;19980;-76
2023/12/15 07:21:03;;;;;;;;;;;6.30;99.90;;;;;;5113427;27;20338;-75
2023/12/15 07:23:29;;;;;;;;;;;6.30;99.90;;;;;;5085403;27;19927;-75
2023/12/15 07:25:55;;;;;;;;;;;6.30;99.90;;;;;;5110973;27;19972;-76
2023/12/15 07:28:20;;;;;;;;;;;6.40;99.90;;;;;;5116698;27;19935;-76
2023/12/15 07:30:46;;;;;;;;;;;6.40;99.90;;;;;;5107294;27;19995;-76
2023/12/15 07:33:12;;;;;;;;;;;6.50;99.90;;;;;;5116573;27;20421;-76
2023/12/15 07:35:37;;;;;;;;;;;6.50;99.90;;;;;;5098097;27;19984;-76
2023/12/15 07:38:03;;;;;;;;;;;6.60;99.90;;;;;;5109397;27;20427;-76
2023/12/15 07:40:28;;;;;;;;;;;6.60;99.90;;;;;;5112443;27;21071;-76
2023/12/15 07:42:54;;;;;;;;;;;6.60;99.90;;;;;;5108004;27;19923;-76
2023/12/15 07:45:20;;;;;;;;;;;6.70;99.90;;;;;;5105953;27;19935;-76
2023/12/15 07:47:45;;;;;;;;;;;6.70;99.90;;;;;;5097360;27;19984;-76
2023/12/15 07:50:11;;;;;;;;;;;6.80;99.90;;;;;;5102019;27;19938;-76
2023/12/15 07:52:36;;;;;;;;;;;6.80;99.90;;;;;;5112097;27;19938;-75
2023/12/15 07:55:02;;;;;;;;;;;6.80;99.90;;;;;;5124291;27;19934;-76
2023/12/15 07:57:28;;;;;;;;;;;6.80;99.90;;;;;;5092135;27;20005;-75
2023/12/15 07:59:53;;;;;;;;;;;6.80;99.90;;;;;;5084847;27;20173;-76
2023/12/15 08:02:21;;;;;;;;;;;6.80;99.90;;;;;;5110897;27;19931;-76
2023/12/15 08:04:47;;;;;;;;;;;6.80;99.90;;;;;;5103213;27;19975;-75
2023/12/15 08:07:12;;;;;;;;;;;6.80;99.90;;;;;;5115673;27;19931;-76
2023/12/15 08:09:38;;;;;;;;;;;6.80;99.90;;;;;;5106036;27;19927;-76
2023/12/15 08:12:04;;;;;;;;;;;6.90;99.90;;;;;;5090786;27;20420;-76
2023/12/15 08:14:29;;;;;;;;;;;6.90;99.90;;;;;;5107204;27;19938;-79
2023/12/15 08:16:55;;;;;;;;;;;6.90;99.90;;;;;;5109280;27;19961;-75
2023/12/15 08:19:21;;;;;;;;;;;6.90;99.90;;;;;;5097441;27;19942;-75
2023/12/15 08:21:48;;;;;;;;;;;6.90;99.90;;;;;;5090569;27;20030;-75
2023/12/15 08:24:15;;;;;;;;;;;6.90;99.90;;;;;;5097754;27;19932;-75
2023/12/15 08:26:41;;;;;;;;;;;6.90;99.90;;;;;;5105069;27;20393;-75
2023/12/15 08:29:06;;;;;;;;;;;6.90;99.90;;;;;;5093802;27;19934;-76
2023/12/15 08:31:32;;;;;;;;;;;6.90;99.90;;;;;;5109524;27;20008;-75
2023/12/15 08:33:57;;;;;;;;;;;6.90;99.90;;;;;;5108424;27;20017;-76
2023/12/15 08:36:23;;;;;;;;;;;6.90;99.90;;;;;;5108483;27;20018;-75
2023/12/15 08:38:49;;;;;;;;;;;7.00;99.90;;;;;;5092282;27;19924;-75
2023/12/15 08:41:14;;;;;;;;;;;7.00;99.90;;;;;;5106372;27;20021;-75
2023/12/15 08:43:40;;;;;;;;;;;7.00;99.90;;;;;;5111358;27;19927;-75
2023/12/15 08:46:06;;;;;;;;;;;7.00;99.90;;;;;;5102931;27;20010;-75
2023/12/15 08:48:32;;;;;;;;;;;7.00;99.90;;;;;;5110697;27;20346;-75
2023/12/15 08:50:58;;;;;;;;;;;7.00;99.90;;;;;;5095488;27;19928;-75
2023/12/15 08:53:24;;;;;;;;;;;7.00;99.90;;;;;;5103973;27;19946;-75
2023/12/15 08:55:49;;;;;;;;;;;7.00;99.90;;;;;;5108902;27;19968;-75
2023/12/15 08:58:15;;;;;;;;;;;7.10;99.90;;;;;;5104108;27;20027;-75
2023/12/15 09:00:42;;;;;;;;;;;7.20;99.90;;;;;;5093326;27;19931;-75
2023/12/15 09:03:07;;;;;;;;;;;7.10;99.90;;;;;;5108423;27;19927;-75
2023/12/15 09:05:33;;;;;;;;;;;7.10;99.90;;;;;;5091335;27;19930;-75
2023/12/15 09:07:59;;;;;;;;;;;7.10;99.90;;;;;;5104068;27;19992;-75
2023/12/15 09:10:25;;;;;;;;;;;7.20;99.90;;;;;;5105148;27;19923;-75
2023/12/15 09:12:52;;;;;;;;;;;7.20;99.90;;;;;;5104903;27;19967;-75
2023/12/15 09:15:17;;;;;;;;;;;7.20;99.90;;;;;;5097882;27;20037;-75
2023/12/15 09:17:43;;;;;;;;;;;7.10;99.90;;;;;;5100305;27;19931;-75
2023/12/15 09:20:10;;;;;;;;;;;7.30;99.90;;;;;;5090164;27;19996;-76
2023/12/15 09:22:35;;;;;;;;;;;7.30;99.90;;;;;;5090741;27;19927;-75
2023/12/15 09:25:05;;;;;;;;;;;7.20;99.90;;;;;;5128640;27;19923;-76
2023/12/15 09:27:31;;;;;;;;;;;7.40;99.90;;;;;;5096064;27;20536;-75
2023/12/15 09:29:59;;;;;;;;;;;7.40;99.90;;;;;;5107491;27;20053;-75
2023/12/15 09:32:25;;;;;;;;;;;7.40;99.90;;;;;;5101768;27;19935;-75
2023/12/15 09:34:50;;;;;;;;;;;7.40;99.90;;;;;;5112224;27;19924;-75
2023/12/15 09:37:16;;;;;;;;;;;7.40;99.90;;;;;;5104726;27;20566;-75
2023/12/15 09:39:42;;;;;;;;;;;7.40;99.90;;;;;;5106964;27;19930;-75
2023/12/15 09:42:07;;;;;;;;;;;7.40;99.90;;;;;;5106608;27;20369;-76
2023/12/15 09:44:33;;;;;;;;;;;7.50;99.90;;;;;;5104922;27;19919;-76
2023/12/15 09:46:59;;;;;;;;;;;7.50;99.90;;;;;;5102722;27;19976;-75
2023/12/15 09:49:25;;;;;;;;;;;7.60;99.90;;;;;;5078635;27;19931;-76
2023/12/15 09:51:51;;;;;;;;;;;7.60;99.90;;;;;;5109337;27;19930;-76
2023/12/15 09:54:18;;;;;;;;;;;7.60;99.90;;;;;;5073990;27;20416;-75
2023/12/15 09:56:46;;;;;;;;;;;7.70;99.90;;;;;;5085508;27;19927;-75
2023/12/15 09:59:12;;;;;;;;;;;7.70;99.90;;;;;;5108392;27;19934;-76
2023/12/15 10:01:38;;;;;;;;;;;7.40;99.90;;;;;;5093130;27;19931;-75
2023/12/15 10:04:07;;;;;;;;;;;7.70;99.90;;;;;;5106182;27;19931;-76
2023/12/15 10:06:34;;;;;;;;;;;7.70;99.90;;;;;;5105532;27;20011;-75
2023/12/15 10:09:00;;;;;;;;;;;7.70;99.90;;;;;;5102608;27;20697;-75
2023/12/15 10:11:27;;;;;;;;;;;7.70;99.90;;;;;;5109706;27;19927;-75
2023/12/15 10:13:54;;;;;;;;;;;7.70;99.90;;;;;;5106351;27;19927;-75
2023/12/15 10:16:20;;;;;;;;;;;7.70;99.90;;;;;;5093330;27;19931;-76
2023/12/15 10:18:46;;;;;;;;;;;7.70;99.90;;;;;;5110846;27;19938;-75
2023/12/15 10:21:12;;;;;;;;;;;7.70;99.90;;;;;;5112656;27;19927;-76
2023/12/15 10:23:37;;;;;;;;;;;7.80;99.90;;;;;;5109930;27;20656;-76
2023/12/15 10:26:04;;;;;;;;;;;7.80;99.90;;;;;;5112644;27;19931;-76
2023/12/15 10:28:38;;;;;;;;;;;7.80;99.90;;;;;;5107230;27;20566;-77
2023/12/15 10:31:07;;;;;;;;;;;7.80;99.90;;;;;;5106607;27;19938;-77
2023/12/15 10:33:33;;;;;;;;;;;7.80;99.90;;;;;;5108908;27;20460;-77
2023/12/15 10:36:02;;;;;;;;;;;7.90;99.90;;;;;;5111134;27;19923;-76
2023/12/15 10:38:31;;;;;;;;;;;7.90;99.90;;;;;;5099669;27;19927;-76
2023/12/15 10:40:57;;;;;;;;;;;7.90;99.90;;;;;;5112762;27;19937;-75
2023/12/15 10:43:31;;;;;;;;;;;8.00;99.90;;;;;;5113559;27;19927;-77
2023/12/15 10:45:58;;;;;;;;;;;8.00;99.90;;;;;;5111115;27;19927;-76
2023/12/15 10:48:24;;;;;;;;;;;8.00;99.90;;;;;;5095913;27;19966;-76
2023/12/15 10:50:52;;;;;;;;;;;8.00;99.90;;;;;;5110820;27;19923;-76
2023/12/15 10:53:18;;;;;;;;;;;8.00;99.90;;;;;;5116246;27;19938;-76
2023/12/15 10:55:46;;;;;;;;;;;8.10;99.90;;;;;;5112993;27;19934;-77
2023/12/15 10:58:12;;;;;;;;;;;8.10;99.90;;;;;;5118094;27;19931;-76
2023/12/15 11:00:46;;;;;;;;;;;8.10;99.90;;;;;;5104653;27;19980;-76
2023/12/15 11:03:12;;;;;;;;;;;8.10;99.90;;;;;;5099146;27;20323;-77
2023/12/15 11:05:39;;;;;;;;;;;8.10;99.90;;;;;;5110696;27;19980;-76
2023/12/15 11:08:06;;;;;;;;;;;8.10;99.90;;;;;;5098373;27;19927;-77
2023/12/15 11:10:32;;;;;;;;;;;8.10;99.90;;;;;;5111879;27;19972;-76
2023/12/15 11:12:58;;;;;;;;;;;8.20;99.90;;;;;;5097097;27;20378;-76
2023/12/15 11:15:24;;;;;;;;;;;8.20;99.90;;;;;;5109948;27;19928;-76
2023/12/15 11:17:53;;;;;;;;;;;8.20;99.90;;;;;;5105513;27;20472;-76
2023/12/15 11:20:23;;;;;;;;;;;8.30;99.90;;;;;;5094070;27;19927;-76
2023/12/15 11:22:52;;;;;;;;;;;8.30;99.90;;;;;;5106162;27;20508;-76
2023/12/15 11:25:24;;;;;;;;;;;8.30;99.90;;;;;;5109131;27;20023;-75
2023/12/15 11:28:00;;;;;;;;;;;8.30;99.90;;;;;;5101606;27;19931;-75
2023/12/15 11:30:29;;;;;;;;;;;8.30;99.90;;;;;;5115361;27;20231;-76
2023/12/15 11:32:55;;;;;;;;;;;8.30;99.90;;;;;;5111445;27;19927;-75
2023/12/15 11:35:33;;;;;;;;;;;8.30;99.90;;;;;;5099692;27;19927;-76
2023/12/15 11:37:58;;;;;;;;;;;8.40;99.90;;;;;;5109291;27;20027;-75
2023/12/15 11:40:29;;;;;;;;;;;8.40;99.90;;;;;;5128904;27;20511;-75
2023/12/15 11:42:56;;;;;;;;;;;8.40;99.90;;;;;;5096685;27;19966;-75
2023/12/15 11:45:23;;;;;;;;;;;8.50;99.90;;;;;;5111228;27;19929;-75
2023/12/15 11:47:49;;;;;;;;;;;8.50;99.90;;;;;;5106418;27;20011;-75
2023/12/15 11:50:15;;;;;;;;;;;8.50;99.90;;;;;;5089598;27;19983;-74
2023/12/15 11:52:41;;;;;;;;;;;9.00;99.90;;;;;;5108650;27;19923;-75
2023/12/15 11:55:07;;;;;;;;;;;8.40;99.90;;;;;;5112100;27;20436;-74
2023/12/15 11:57:35;;;;;;;;;;;8.30;99.90;;;;;;5109551;27;19924;-75
2023/12/15 12:00:01;;;;;;;;;;;8.30;99.90;;;;;;5114268;27;20024;-74
2023/12/15 12:02:28;;;;;;;;;;;8.30;99.90;;;;;;5105276;27;20007;-74
2023/12/15 12:04:54;;;;;;;;;;;8.30;99.90;;;;;;5117129;27;19980;-74
2023/12/15 12:07:20;;;;;;;;;;;8.20;99.90;;;;;;5110326;27;19927;-75
2023/12/15 12:09:45;;;;;;;;;;;8.20;99.90;;;;;;5107621;27;19982;-75
2023/12/15 12:12:11;;;;;;;;;;;8.20;99.90;;;;;;5111809;27;19962;-75
2023/12/15 12:14:41;;;;;;;;;;;8.20;99.90;;;;;;5109548;27;20306;-75
2023/12/15 12:17:07;;;;;;;;;;;8.20;99.90;;;;;;5110794;27;19931;-75
2023/12/15 12:19:38;;;;;;;;;;;8.20;99.90;;;;;;5102865;27;19965;-75
2023/12/15 12:22:03;;;;;;;;;;;8.20;99.90;;;;;;5108661;27;20429;-74
2023/12/15 12:24:29;;;;;;;;;;;8.10;99.90;;;;;;5092668;27;20026;-75
2023/12/15 12:26:54;;;;;;;;;;;8.10;99.90;;;;;;5118547;27;19963;-74
2023/12/15 12:29:20;;;;;;;;;;;8.10;99.90;;;;;;5116215;27;19927;-74
2023/12/15 12:31:46;;;;;;;;;;;8.10;99.90;;;;;;5092747;27;19931;-74
2023/12/15 12:34:11;;;;;;;;;;;8.10;99.90;;;;;;5099788;27;19923;-74
2023/12/15 12:36:37;;;;;;;;;;;8.10;99.90;;;;;;5092930;27;19928;-75
2023/12/15 12:39:03;;;;;;;;;;;8.10;99.90;;;;;;5109759;27;19923;-74
2023/12/15 12:41:28;;;;;;;;;;;8.10;99.90;;;;;;5112346;27;19954;-74
2023/12/15 12:43:54;;;;;;;;;;;8.20;99.90;;;;;;5112792;27;20011;-74
2023/12/15 12:46:20;;;;;;;;;;;8.20;99.90;;;;;;5129690;27;19978;-74
2023/12/15 12:48:46;;;;;;;;;;;8.20;99.90;;;;;;5108705;27;20023;-75
2023/12/15 12:51:12;;;;;;;;;;;8.20;99.90;;;;;;5107117;27;20013;-75
2023/12/15 12:53:38;;;;;;;;;;;8.20;99.90;;;;;;5130977;27;19980;-74
2023/12/15 12:56:04;;;;;;;;;;;8.20;99.90;;;;;;5108718;27;20070;-74
2023/12/15 12:58:30;;;;;;;;;;;8.20;99.90;;;;;;5110428;27;20307;-74
2023/12/15 13:00:56;;;;;;;;;;;8.20;99.90;;;;;;5095029;27;19931;-74
2023/12/15 13:03:22;;;;;;;;;;;8.20;99.90;;;;;;5107248;27;19927;-74
2023/12/15 13:05:48;;;;;;;;;;;8.20;99.90;;;;;;5111247;27;19931;-74
2023/12/15 13:08:14;;;;;;;;;;;8.20;99.90;;;;;;5109388;27;19969;-74
2023/12/15 13:10:39;;;;;;;;;;;8.20;99.90;;;;;;5107825;27;20397;-75
2023/12/15 13:13:06;;;;;;;;;;;8.20;99.90;;;;;;5097487;27;19931;-75
2023/12/15 13:15:32;;;;;;;;;;;8.20;99.90;;;;;;5111821;27;19933;-75
2023/12/15 13:17:59;;;;;;;;;;;8.20;99.90;;;;;;5097075;27;20010;-74
2023/12/15 13:20:25;;;;;;;;;;;8.20;99.90;;;;;;5094962;27;19927;-74
2023/12/15 13:22:51;;;;;;;;;;;8.10;99.90;;;;;;5115443;27;19988;-74
2023/12/15 13:25:17;;;;;;;;;;;8.10;99.90;;;;;;5092261;27;20120;-75
2023/12/15 13:27:43;;;;;;;;;;;8.10;99.90;;;;;;5112195;27;20034;-75
2023/12/15 13:30:09;;;;;;;;;;;8.10;99.90;;;;;;5103629;27;19931;-75
2023/12/15 13:32:36;;;;;;;;;;;8.10;99.90;;;;;;5103591;27;19923;-75
2023/12/15 13:35:01;;;;;;;;;;;8.10;99.90;;;;;;5116637;27;20010;-75
2023/12/15 13:37:27;;;;;;;;;;;8.00;99.90;;;;;;5117311;27;20026;-75
2023/12/15 13:39:53;;;;;;;;;;;8.00;99.90;;;;;;5110970;27;19977;-75
2023/12/15 13:42:19;;;;;;;;;;;8.00;99.90;;;;;;5129583;27;20014;-75
2023/12/15 13:44:45;;;;;;;;;;;8.00;99.90;;;;;;5102989;27;19931;-75
2023/12/15 13:47:10;;;;;;;;;;;7.90;99.90;;;;;;5097796;27;19931;-75
2023/12/15 13:49:36;;;;;;;;;;;7.90;99.90;;;;;;5121017;27;19931;-76
2023/12/15 13:52:02;;;;;;;;;;;7.90;99.90;;;;;;5104534;27;20032;-76
2023/12/15 13:54:28;;;;;;;;;;;7.90;99.90;;;;;;5114526;27;19938;-75
2023/12/15 13:56:56;;;;;;;;;;;7.80;99.90;;;;;;5113959;27;20391;-75
2023/12/15 13:59:22;;;;;;;;;;;7.80;99.90;;;;;;5115816;27;20015;-74
2023/12/15 14:01:47;;;;;;;;;;;7.80;99.90;;;;;;5114363;27;20057;-74
2023/12/15 14:04:13;;;;;;;;;;;7.80;99.90;;;;;;5122748;27;19933;-75
2023/12/15 14:06:41;;;;;;;;;;;7.80;99.90;;;;;;5117242;27;19923;-75
2023/12/15 14:09:07;;;;;;;;;;;7.70;99.90;;;;;;5095637;27;20370;-75
2023/12/15 14:11:33;;;;;;;;;;;7.70;99.90;;;;;;5120835;27;20178;-75
2023/12/15 14:13:58;;;;;;;;;;;7.40;99.90;;;;;;5116681;27;19927;-76
2023/12/15 14:16:24;;;;;;;;;;;7.60;99.90;;;;;;5115059;27;21066;-76
2023/12/15 14:18:50;;;;;;;;;;;7.60;99.90;;;;;;5133674;27;20285;-75
2023/12/15 14:21:15;;;;;;;;;;;7.60;99.90;;;;;;5096970;27;19947;-75
2023/12/15 14:23:41;;;;;;;;;;;7.50;99.90;;;;;;5115195;27;19966;-75